sensor_id;sensor_type;location;lat;lon;timestamp;pressure;altitude;pressure_sealevel;temperature;humidity
46682;BME280;34101;53.430;-2.224;2022-10-16T00:01:07;154962.12;;;10.00;100.00
46682;BME280;34101;53.430;-2.224;2022-10-16T00:03:35;154965.19;;;10.01;100.00
46682;BME280;34101;53.430;-2.224;2022-10-16T00:06:03;154982.56;;;10.08;100.00
46682;BME280;34101;53.430;-2.224;2022-10-16T00:08:31;154978.76;;;10.06;100.00
46682;BME280;34101;53.430;-2.224;2022-10-16T00:11:01;154967.21;;;10.02;100.00
46682;BME280;34101;53.430;-2.224;2022-10-16T00:13:29;154995.74;;;10.13;100.00
46682;BME280;34101;53.430;-2.224;2022-10-16T00:15:57;154988.22;;;10.10;100.00
46682;BME280;34101;53.430;-2.224;2022-10-16T00:18:25;155019.90;;;10.23;100.00
46682;BME280;34101;53.430;-2.224;2022-10-16T00:20:52;155013.68;;;10.20;100.00
46682;BME280;34101;53.430;-2.224;2022-10-16T00:23:19;154966.88;;;10.01;100.00
46682;BME280;34101;53.430;-2.224;2022-10-16T00:25:55;154980.30;;;10.07;100.00
46682;BME280;34101;53.430;-2.224;2022-10-16T00:28:23;154961.87;;;9.99;100.00
46682;BME280;34101;53.430;-2.224;2022-10-16T00:30:50;154892.38;;;9.71;100.00
46682;BME280;34101;53.430;-2.224;2022-10-16T00:33:18;154948.30;;;9.94;100.00
46682;BME280;34101;53.430;-2.224;2022-10-16T00:35:45;154985.96;;;10.09;100.00
46682;BME280;34101;53.430;-2.224;2022-10-16T00:38:13;154983.29;;;10.08;100.00
46682;BME280;34101;53.430;-2.224;2022-10-16T00:40:40;154990.24;;;10.11;100.00
46682;BME280;34101;53.430;-2.224;2022-10-16T00:43:12;154959.93;;;9.99;100.00
46682;BME280;34101;53.430;-2.224;2022-10-16T00:45:41;155023.30;;;10.24;100.00
46682;BME280;34101;53.430;-2.224;2022-10-16T00:48:11;154950.32;;;9.95;100.00
46682;BME280;34101;53.430;-2.224;2022-10-16T00:50:40;154918.24;;;9.82;100.00
46682;BME280;34101;53.430;-2.224;2022-10-16T00:53:07;154892.38;;;9.71;100.00
46682;BME280;34101;53.430;-2.224;2022-10-16T00:55:35;154914.92;;;9.80;100.00
46682;BME280;34101;53.430;-2.224;2022-10-16T00:58:03;154902.32;;;9.75;100.00
46682;BME280;34101;53.430;-2.224;2022-10-16T01:00:32;154876.06;;;9.65;100.00
46682;BME280;34101;53.430;-2.224;2022-10-16T01:03:01;154887.69;;;9.70;100.00
46682;BME280;34101;53.430;-2.224;2022-10-16T01:05:33;154856.91;;;9.57;100.00
46682;BME280;34101;53.430;-2.224;2022-10-16T01:08:11;154824.59;;;9.44;100.00
46682;BME280;34101;53.430;-2.224;2022-10-16T01:10:43;154833.72;;;9.48;100.00
46682;BME280;34101;53.430;-2.224;2022-10-16T01:13:18;154820.96;;;9.43;100.00
46682;BME280;34101;53.430;-2.224;2022-10-16T01:15:50;154872.02;;;9.63;100.00
46682;BME280;34101;53.430;-2.224;2022-10-16T01:18:25;154823.54;;;9.44;100.00
46682;BME280;34101;53.430;-2.224;2022-10-16T01:21:01;154864.91;;;9.60;100.00
46682;BME280;34101;53.430;-2.224;2022-10-16T01:23:40;154846.41;;;9.53;100.00
46682;BME280;34101;53.430;-2.224;2022-10-16T01:26:15;154824.11;;;9.44;100.00
46682;BME280;34101;53.430;-2.224;2022-10-16T01:28:49;154816.19;;;9.41;100.00
46682;BME280;34101;53.430;-2.224;2022-10-16T01:31:21;154832.35;;;9.47;100.00
46682;BME280;34101;53.430;-2.224;2022-10-16T01:33:55;154813.61;;;9.40;100.00
46682;BME280;34101;53.430;-2.224;2022-10-16T01:36:27;154799.87;;;9.34;100.00
46682;BME280;34101;53.430;-2.224;2022-10-16T01:39:01;154839.94;;;9.50;100.00
46682;BME280;34101;53.430;-2.224;2022-10-16T01:41:33;154841.16;;;9.51;100.00
46682;BME280;34101;53.430;-2.224;2022-10-16T01:44:04;154887.77;;;9.70;100.00
46682;BME280;34101;53.430;-2.224;2022-10-16T01:46:35;154848.02;;;9.54;100.00
46682;BME280;34101;53.430;-2.224;2022-10-16T01:49:05;154879.13;;;9.66;100.00
46682;BME280;34101;53.430;-2.224;2022-10-16T01:51:34;154907.65;;;9.78;100.00
46682;BME280;34101;53.430;-2.224;2022-10-16T01:54:02;154952.90;;;9.96;100.00
46682;BME280;34101;53.430;-2.224;2022-10-16T01:56:32;154902.64;;;9.76;100.00
46682;BME280;34101;53.430;-2.224;2022-10-16T01:59:03;154943.21;;;9.92;100.00
46682;BME280;34101;53.430;-2.224;2022-10-16T02:02:28;154926.16;;;9.85;100.00
46682;BME280;34101;53.430;-2.224;2022-10-16T02:05:02;154907.49;;;9.77;100.00
46682;BME280;34101;53.430;-2.224;2022-10-16T02:07:31;154935.61;;;9.89;100.00
46682;BME280;34101;53.430;-2.224;2022-10-16T02:09:59;154983.05;;;10.08;100.00
46682;BME280;34101;53.430;-2.224;2022-10-16T02:12:30;154952.74;;;9.96;100.00
46682;BME280;34101;53.430;-2.224;2022-10-16T02:14:58;154946.76;;;9.93;100.00
46682;BME280;34101;53.430;-2.224;2022-10-16T02:17:26;154973.19;;;10.04;100.00
46682;BME280;34101;53.430;-2.224;2022-10-16T02:19:55;154948.94;;;9.94;100.00
46682;BME280;34101;53.430;-2.224;2022-10-16T02:22:27;154902.24;;;9.75;100.00
46682;BME280;34101;53.430;-2.224;2022-10-16T02:24:58;154946.44;;;9.93;100.00
46682;BME280;34101;53.430;-2.224;2022-10-16T02:27:29;154954.92;;;9.97;100.00
46682;BME280;34101;53.430;-2.224;2022-10-16T02:30:07;154907.09;;;9.77;100.00
46682;BME280;34101;53.430;-2.224;2022-10-16T02:32:39;154955.49;;;9.97;100.00
46682;BME280;34101;53.430;-2.224;2022-10-16T02:35:09;154958.16;;;9.98;100.00
46682;BME280;34101;53.430;-2.224;2022-10-16T02:37:36;154907.01;;;9.77;100.00
46682;BME280;34101;53.430;-2.224;2022-10-16T02:40:07;154949.27;;;9.95;100.00
46682;BME280;34101;53.430;-2.224;2022-10-16T02:42:36;154895.21;;;9.73;100.00
46682;BME280;34101;53.430;-2.224;2022-10-16T02:45:04;154932.14;;;9.87;100.00
46682;BME280;34101;53.430;-2.224;2022-10-16T02:47:32;154930.92;;;9.87;100.00
46682;BME280;34101;53.430;-2.224;2022-10-16T02:49:59;154906.44;;;9.77;100.00
46682;BME280;34101;53.430;-2.224;2022-10-16T02:52:27;154936.98;;;9.89;100.00
46682;BME280;34101;53.430;-2.224;2022-10-16T02:54:54;154938.68;;;9.90;100.00
46682;BME280;34101;53.430;-2.224;2022-10-16T02:57:21;154866.44;;;9.61;100.00
46682;BME280;34101;53.430;-2.224;2022-10-16T02:59:49;154948.78;;;9.94;100.00
46682;BME280;34101;53.430;-2.224;2022-10-16T03:02:17;154950.40;;;9.95;100.00
46682;BME280;34101;53.430;-2.224;2022-10-16T03:04:44;154936.01;;;9.89;100.00
46682;BME280;34101;53.430;-2.224;2022-10-16T03:07:11;154908.22;;;9.78;100.00
46682;BME280;34101;53.430;-2.224;2022-10-16T03:09:39;154842.53;;;9.51;100.00
46682;BME280;34101;53.430;-2.224;2022-10-16T03:12:06;154862.97;;;9.60;100.00
46682;BME280;34101;53.430;-2.224;2022-10-16T03:14:34;154876.79;;;9.65;100.00
46682;BME280;34101;53.430;-2.224;2022-10-16T03:17:01;154843.26;;;9.52;100.00
46682;BME280;34101;53.430;-2.224;2022-10-16T03:19:28;154820.80;;;9.43;100.00
46682;BME280;34101;53.430;-2.224;2022-10-16T03:21:56;154824.43;;;9.44;100.00
46682;BME280;34101;53.430;-2.224;2022-10-16T03:24:23;154822.82;;;9.43;100.00
46682;BME280;34101;53.430;-2.224;2022-10-16T03:26:50;154813.37;;;9.40;100.00
46682;BME280;34101;53.430;-2.224;2022-10-16T03:29:18;154761.83;;;9.19;100.00
46682;BME280;34101;53.430;-2.224;2022-10-16T03:31:46;154801.33;;;9.35;100.00
46682;BME280;34101;53.430;-2.224;2022-10-16T03:34:13;154775.64;;;9.24;100.00
46682;BME280;34101;53.430;-2.224;2022-10-16T03:36:40;154740.67;;;9.10;100.00
46682;BME280;34101;53.430;-2.224;2022-10-16T03:39:07;154764.98;;;9.20;100.00
46682;BME280;34101;53.430;-2.224;2022-10-16T03:41:35;154782.02;;;9.27;100.00
46682;BME280;34101;53.430;-2.224;2022-10-16T03:44:02;154757.14;;;9.17;100.00
46682;BME280;34101;53.430;-2.224;2022-10-16T03:46:31;154745.84;;;9.12;100.00
46682;BME280;34101;53.430;-2.224;2022-10-16T03:48:59;154664.67;;;8.80;100.00
46682;BME280;34101;53.430;-2.224;2022-10-16T03:51:27;154687.93;;;8.89;100.00
46682;BME280;34101;53.430;-2.224;2022-10-16T03:53:55;154719.59;;;9.02;100.00
46682;BME280;34101;53.430;-2.224;2022-10-16T03:56:22;154740.91;;;9.10;100.00
46682;BME280;34101;53.430;-2.224;2022-10-16T03:58:50;154726.29;;;9.04;100.00
46682;BME280;34101;53.430;-2.224;2022-10-16T04:01:17;154724.03;;;9.04;100.00
46682;BME280;34101;53.430;-2.224;2022-10-16T04:03:44;154731.94;;;9.07;100.00
46682;BME280;34101;53.430;-2.224;2022-10-16T04:06:12;154727.66;;;9.05;100.00
46682;BME280;34101;53.430;-2.224;2022-10-16T04:08:42;154685.34;;;8.88;100.00
46682;BME280;34101;53.430;-2.224;2022-10-16T04:11:09;154698.10;;;8.93;100.00
46682;BME280;34101;53.430;-2.224;2022-10-16T04:13:37;154689.87;;;8.90;100.00
46682;BME280;34101;53.430;-2.224;2022-10-16T04:16:05;154688.09;;;8.89;100.00
46682;BME280;34101;53.430;-2.224;2022-10-16T04:18:33;154718.29;;;9.01;100.00
46682;BME280;34101;53.430;-2.224;2022-10-16T04:21:03;154644.40;;;8.71;100.00
46682;BME280;34101;53.430;-2.224;2022-10-16T04:23:30;154656.60;;;8.76;100.00
46682;BME280;34101;53.430;-2.224;2022-10-16T04:25:57;154647.07;;;8.73;100.00
46682;BME280;34101;53.430;-2.224;2022-10-16T04:28:25;154618.32;;;8.61;100.00
46682;BME280;34101;53.430;-2.224;2022-10-16T04:30:52;154641.98;;;8.70;100.00
46682;BME280;34101;53.430;-2.224;2022-10-16T04:33:20;154651.99;;;8.74;100.00
46682;BME280;34101;53.430;-2.224;2022-10-16T04:35:47;154651.43;;;8.74;100.00
46682;BME280;34101;53.430;-2.224;2022-10-16T04:38:15;154611.86;;;8.58;100.00
46682;BME280;34101;53.430;-2.224;2022-10-16T04:40:42;154631.73;;;8.66;100.00
46682;BME280;34101;53.430;-2.224;2022-10-16T04:43:10;154637.78;;;8.69;100.00
46682;BME280;34101;53.430;-2.224;2022-10-16T04:45:37;154620.02;;;8.62;100.00
46682;BME280;34101;53.430;-2.224;2022-10-16T04:48:05;154627.28;;;8.65;100.00
46682;BME280;34101;53.430;-2.224;2022-10-16T04:50:32;154618.81;;;8.61;100.00
46682;BME280;34101;53.430;-2.224;2022-10-16T04:52:59;154595.55;;;8.52;100.00
46682;BME280;34101;53.430;-2.224;2022-10-16T04:55:27;154603.55;;;8.55;100.00
46682;BME280;34101;53.430;-2.224;2022-10-16T04:57:54;154598.94;;;8.53;100.00
46682;BME280;34101;53.430;-2.224;2022-10-16T05:00:21;154592.89;;;8.51;100.00
46682;BME280;34101;53.430;-2.224;2022-10-16T05:02:50;154582.47;;;8.46;100.00
46682;BME280;34101;53.430;-2.224;2022-10-16T05:05:17;154562.86;;;8.39;100.00
46682;BME280;34101;53.430;-2.224;2022-10-16T05:07:45;154574.64;;;8.43;100.00
46682;BME280;34101;53.430;-2.224;2022-10-16T05:10:12;154524.51;;;8.23;100.00
46682;BME280;34101;53.430;-2.224;2022-10-16T05:12:39;154555.83;;;8.36;100.00
46682;BME280;34101;53.430;-2.224;2022-10-16T05:15:08;154553.33;;;8.35;100.00
46682;BME280;34101;53.430;-2.224;2022-10-16T05:17:36;154542.83;;;8.30;100.00
46682;BME280;34101;53.430;-2.224;2022-10-16T05:20:04;154539.04;;;8.29;100.00
46682;BME280;34101;53.430;-2.224;2022-10-16T05:22:32;154542.35;;;8.30;100.00
46682;BME280;34101;53.430;-2.224;2022-10-16T05:24:59;154544.05;;;8.31;100.00
46682;BME280;34101;53.430;-2.224;2022-10-16T05:27:27;154537.67;;;8.28;100.00
46682;BME280;34101;53.430;-2.224;2022-10-16T05:29:54;154509.17;;;8.17;100.00
46682;BME280;34101;53.430;-2.224;2022-10-16T05:32:22;154526.61;;;8.24;100.00
46682;BME280;34101;53.430;-2.224;2022-10-16T05:34:50;154523.94;;;8.23;100.00
46682;BME280;34101;53.430;-2.224;2022-10-16T05:37:17;154528.22;;;8.25;100.00
46682;BME280;34101;53.430;-2.224;2022-10-16T05:39:44;154536.13;;;8.28;100.00
46682;BME280;34101;53.430;-2.224;2022-10-16T05:42:12;154531.13;;;8.26;100.00
46682;BME280;34101;53.430;-2.224;2022-10-16T05:44:40;154534.36;;;8.27;100.00
46682;BME280;34101;53.430;-2.224;2022-10-16T05:47:07;154496.34;;;8.12;100.00
46682;BME280;34101;53.430;-2.224;2022-10-16T05:49:34;154459.45;;;7.97;100.00
46682;BME280;34101;53.430;-2.224;2022-10-16T05:52:02;154439.36;;;7.89;100.00
46682;BME280;34101;53.430;-2.224;2022-10-16T05:54:29;154437.98;;;7.88;100.00
46682;BME280;34101;53.430;-2.224;2022-10-16T05:56:57;154447.99;;;7.92;100.00
46682;BME280;34101;53.430;-2.224;2022-10-16T05:59:24;154417.57;;;7.80;100.00
46682;BME280;34101;53.430;-2.224;2022-10-16T06:01:51;154445.89;;;7.91;100.00
46682;BME280;34101;53.430;-2.224;2022-10-16T06:04:18;154406.35;;;7.75;100.00
46682;BME280;34101;53.430;-2.224;2022-10-16T06:06:45;154414.90;;;7.79;100.00
46682;BME280;34101;53.430;-2.224;2022-10-16T06:09:13;154420.63;;;7.81;100.00
46682;BME280;34101;53.430;-2.224;2022-10-16T06:11:40;154431.04;;;7.85;100.00
46682;BME280;34101;53.430;-2.224;2022-10-16T06:14:08;154399.17;;;7.73;100.00
46682;BME280;34101;53.430;-2.224;2022-10-16T06:16:36;154403.36;;;7.74;100.00
46682;BME280;34101;53.430;-2.224;2022-10-16T06:19:04;154418.62;;;7.80;100.00
46682;BME280;34101;53.430;-2.224;2022-10-16T06:21:32;154399.25;;;7.73;100.00
46682;BME280;34101;53.430;-2.224;2022-10-16T06:23:59;154412.16;;;7.78;100.00
46682;BME280;34101;53.430;-2.224;2022-10-16T06:26:29;154434.84;;;7.87;100.00
46682;BME280;34101;53.430;-2.224;2022-10-16T06:28:57;154428.46;;;7.84;100.00
46682;BME280;34101;53.430;-2.224;2022-10-16T06:31:26;154423.62;;;7.82;100.00
46682;BME280;34101;53.430;-2.224;2022-10-16T06:33:54;154428.54;;;7.84;100.00
46682;BME280;34101;53.430;-2.224;2022-10-16T06:36:21;154447.27;;;7.92;100.00
46682;BME280;34101;53.430;-2.224;2022-10-16T06:38:48;154412.08;;;7.78;100.00
46682;BME280;34101;53.430;-2.224;2022-10-16T06:41:18;154410.38;;;7.77;100.00
46682;BME280;34101;53.430;-2.224;2022-10-16T06:43:46;154432.09;;;7.86;100.00
46682;BME280;34101;53.430;-2.224;2022-10-16T06:46:16;154423.94;;;7.83;100.00
46682;BME280;34101;53.430;-2.224;2022-10-16T06:48:43;154409.33;;;7.77;100.00
46682;BME280;34101;53.430;-2.224;2022-10-16T06:51:12;154402.96;;;7.74;100.00
46682;BME280;34101;53.430;-2.224;2022-10-16T06:53:42;154412.16;;;7.78;100.00
46682;BME280;34101;53.430;-2.224;2022-10-16T06:56:10;154426.12;;;7.83;100.00
46682;BME280;34101;53.430;-2.224;2022-10-16T06:58:39;154405.38;;;7.75;100.00
46682;BME280;34101;53.430;-2.224;2022-10-16T07:01:07;154422.33;;;7.82;100.00
46682;BME280;34101;53.430;-2.224;2022-10-16T07:03:36;154431.85;;;7.86;100.00
46682;BME280;34101;53.430;-2.224;2022-10-16T07:06:06;154453.16;;;7.94;100.00
46682;BME280;34101;53.430;-2.224;2022-10-16T07:08:34;154457.84;;;7.96;100.00
46682;BME280;34101;53.430;-2.224;2022-10-16T07:11:02;154461.63;;;7.98;100.00
46682;BME280;34101;53.430;-2.224;2022-10-16T07:13:29;154473.09;;;8.02;100.00
46682;BME280;34101;53.430;-2.224;2022-10-16T07:15:56;154475.76;;;8.03;100.00
46682;BME280;34101;53.430;-2.224;2022-10-16T07:18:24;154493.51;;;8.11;100.00
46682;BME280;34101;53.430;-2.224;2022-10-16T07:20:51;154520.23;;;8.21;100.00
46682;BME280;34101;53.430;-2.224;2022-10-16T07:23:19;154532.18;;;8.26;100.00
46682;BME280;34101;53.430;-2.224;2022-10-16T07:25:53;154563.99;;;8.39;100.00
46682;BME280;34101;53.430;-2.224;2022-10-16T07:28:20;154551.71;;;8.34;100.00
46682;BME280;34101;53.430;-2.224;2022-10-16T07:30:48;154593.94;;;8.51;100.00
46682;BME280;34101;53.430;-2.224;2022-10-16T07:33:16;154632.94;;;8.67;100.00
46682;BME280;34101;53.430;-2.224;2022-10-16T07:35:49;154665.07;;;8.80;100.00
46682;BME280;34101;53.430;-2.224;2022-10-16T07:38:18;154800.28;;;9.34;100.00
46682;BME280;34101;53.430;-2.224;2022-10-16T07:40:45;155067.35;;;10.42;100.00
46682;BME280;34101;53.430;-2.224;2022-10-16T07:43:14;155408.46;;;11.79;100.00
46682;BME280;34101;53.430;-2.224;2022-10-16T07:45:49;155678.37;;;12.88;100.00
46682;BME280;34101;53.430;-2.224;2022-10-16T07:48:18;155848.50;;;13.56;100.00
46682;BME280;34101;53.430;-2.224;2022-10-16T07:50:45;155929.98;;;13.89;100.00
46682;BME280;34101;53.430;-2.224;2022-10-16T07:53:13;155943.75;;;13.95;100.00
46682;BME280;34101;53.430;-2.224;2022-10-16T07:55:42;155822.99;;;13.46;100.00
46682;BME280;34101;53.430;-2.224;2022-10-16T07:58:09;156047.05;;;14.36;100.00
46682;BME280;34101;53.430;-2.224;2022-10-16T08:00:37;156210.60;;;15.02;100.00
46682;BME280;34101;53.430;-2.224;2022-10-16T08:03:04;156324.99;;;15.48;100.00
46682;BME280;34101;53.430;-2.224;2022-10-16T08:05:32;156437.79;;;15.93;100.00
46682;BME280;34101;53.430;-2.224;2022-10-16T08:08:00;156519.63;;;16.26;98.09
46682;BME280;34101;53.430;-2.224;2022-10-16T08:10:29;156562.54;;;16.43;92.39
46682;BME280;34101;53.430;-2.224;2022-10-16T08:12:55;156639.30;;;16.74;92.62
46682;BME280;34101;53.430;-2.224;2022-10-16T08:15:23;156653.98;;;16.80;92.62
46682;BME280;34101;53.430;-2.224;2022-10-16T08:17:59;156718.58;;;17.06;81.50
46682;BME280;34101;53.430;-2.224;2022-10-16T08:20:28;156759.72;;;17.22;78.04
46682;BME280;34101;53.430;-2.224;2022-10-16T08:22:56;156800.06;;;17.38;77.73
46682;BME280;34101;53.430;-2.224;2022-10-16T08:25:23;156855.42;;;17.61;77.11
46682;BME280;34101;53.430;-2.224;2022-10-16T08:27:51;156924.10;;;17.88;74.38
46682;BME280;34101;53.430;-2.224;2022-10-16T08:30:20;156930.60;;;17.91;73.31
46682;BME280;34101;53.430;-2.224;2022-10-16T08:32:48;156766.13;;;17.25;73.60
46682;BME280;34101;53.430;-2.224;2022-10-16T08:35:15;156827.01;;;17.49;71.91
46682;BME280;34101;53.430;-2.224;2022-10-16T08:37:42;156884.24;;;17.72;69.64
46682;BME280;34101;53.430;-2.224;2022-10-16T08:40:24;156830.91;;;17.51;69.61
46682;BME280;34101;53.430;-2.224;2022-10-16T08:43:11;156789.43;;;17.34;69.51
46682;BME280;34101;53.430;-2.224;2022-10-16T08:45:51;156845.27;;;17.57;69.98
46682;BME280;34101;53.430;-2.224;2022-10-16T08:48:29;156901.69;;;17.79;66.70
46682;BME280;34101;53.430;-2.224;2022-10-16T08:50:58;156808.75;;;17.42;67.93
46682;BME280;34101;53.430;-2.224;2022-10-16T08:53:31;156806.88;;;17.41;67.37
46682;BME280;34101;53.430;-2.224;2022-10-16T08:56:00;156677.43;;;16.89;65.07
46682;BME280;34101;53.430;-2.224;2022-10-16T08:58:29;156816.13;;;17.45;61.95
46682;BME280;34101;53.430;-2.224;2022-10-16T09:01:00;156667.29;;;16.85;64.12
46682;BME280;34101;53.430;-2.224;2022-10-16T09:03:41;156517.76;;;16.25;65.73
46682;BME280;34101;53.430;-2.224;2022-10-16T09:06:25;156739.35;;;17.14;61.91
46682;BME280;34101;53.430;-2.224;2022-10-16T09:09:04;156858.83;;;17.62;60.28
46682;BME280;34101;53.430;-2.224;2022-10-16T09:11:41;156859.40;;;17.62;57.06
46682;BME280;34101;53.430;-2.224;2022-10-16T09:14:28;156679.54;;;16.90;58.81
46682;BME280;34101;53.430;-2.224;2022-10-16T09:17:04;156391.89;;;15.75;63.10
46682;BME280;34101;53.430;-2.224;2022-10-16T09:19:38;156596.29;;;16.57;60.76
46682;BME280;34101;53.430;-2.224;2022-10-16T09:22:13;156515.82;;;16.24;62.74
46682;BME280;34101;53.430;-2.224;2022-10-16T09:24:42;156701.70;;;16.99;60.71
46682;BME280;34101;53.430;-2.224;2022-10-16T09:27:10;156714.52;;;17.04;59.78
46682;BME280;34101;53.430;-2.224;2022-10-16T09:29:37;156739.27;;;17.14;59.36
46682;BME280;34101;53.430;-2.224;2022-10-16T09:32:11;156484.43;;;16.12;62.38
46682;BME280;34101;53.430;-2.224;2022-10-16T09:34:43;156677.19;;;16.89;61.07
46682;BME280;34101;53.430;-2.224;2022-10-16T09:37:14;156587.69;;;16.53;60.94
46682;BME280;34101;53.430;-2.224;2022-10-16T09:39:45;156681.73;;;16.91;61.32
46682;BME280;34101;53.430;-2.224;2022-10-16T09:42:16;156590.70;;;16.54;61.39
46682;BME280;34101;53.430;-2.224;2022-10-16T09:44:47;156569.93;;;16.46;61.68
46682;BME280;34101;53.430;-2.224;2022-10-16T09:47:18;156534.72;;;16.32;62.74
46682;BME280;34101;53.430;-2.224;2022-10-16T09:49:52;156451.74;;;15.99;63.70
46682;BME280;34101;53.430;-2.224;2022-10-16T09:52:21;156670.37;;;16.86;62.00
46682;BME280;34101;53.430;-2.224;2022-10-16T09:54:52;156649.84;;;16.78;61.99
46682;BME280;34101;53.430;-2.224;2022-10-16T09:57:20;156576.09;;;16.49;61.81
46682;BME280;34101;53.430;-2.224;2022-10-16T09:59:49;156731.32;;;17.11;59.10
46682;BME280;34101;53.430;-2.224;2022-10-16T10:02:19;156515.66;;;16.24;61.97
46682;BME280;34101;53.430;-2.224;2022-10-16T10:04:50;156635.16;;;16.72;59.56
46682;BME280;34101;53.430;-2.224;2022-10-16T10:07:24;156506.08;;;16.20;60.99
46682;BME280;34101;53.430;-2.224;2022-10-16T10:09:52;156727.42;;;17.09;58.36
46682;BME280;34101;53.430;-2.224;2022-10-16T10:12:22;156744.46;;;17.16;58.48
46682;BME280;34101;53.430;-2.224;2022-10-16T10:14:52;156690.98;;;16.95;59.38
46682;BME280;34101;53.430;-2.224;2022-10-16T10:17:21;156644.24;;;16.76;60.59
46682;BME280;34101;53.430;-2.224;2022-10-16T10:19:51;156782.93;;;17.32;59.61
46682;BME280;34101;53.430;-2.224;2022-10-16T10:22:25;156800.95;;;17.39;59.12
46682;BME280;34101;53.430;-2.224;2022-10-16T10:25:00;156651.22;;;16.79;58.11
46682;BME280;34101;53.430;-2.224;2022-10-16T10:27:42;156529.69;;;16.30;60.57
46682;BME280;34101;53.430;-2.224;2022-10-16T10:30:19;156713.38;;;17.04;58.83
46682;BME280;34101;53.430;-2.224;2022-10-16T10:33:01;156654.96;;;16.80;58.21
46682;BME280;34101;53.430;-2.224;2022-10-16T10:35:42;156465.04;;;16.04;61.65
46682;BME280;34101;53.430;-2.224;2022-10-16T10:38:22;156617.39;;;16.65;60.03
46682;BME280;34101;53.430;-2.224;2022-10-16T10:41:00;156737.81;;;17.14;58.19
46682;BME280;34101;53.430;-2.224;2022-10-16T10:43:44;156905.27;;;17.81;57.28
46682;BME280;34101;53.430;-2.224;2022-10-16T10:46:22;156893.66;;;17.76;55.40
46682;BME280;34101;53.430;-2.224;2022-10-16T10:49:04;156750.39;;;17.19;57.41
46682;BME280;34101;53.430;-2.224;2022-10-16T10:51:41;156811.02;;;17.43;56.05
46682;BME280;34101;53.430;-2.224;2022-10-16T10:54:15;156614.39;;;16.64;56.93
46682;BME280;34101;53.430;-2.224;2022-10-16T10:56:51;156722.88;;;17.08;56.95
46682;BME280;34101;53.430;-2.224;2022-10-16T10:59:32;156633.13;;;16.71;58.81
46682;BME280;34101;53.430;-2.224;2022-10-16T11:02:09;156602.78;;;16.59;56.68
46682;BME280;34101;53.430;-2.224;2022-10-16T11:04:55;156639.46;;;16.74;57.24
46682;BME280;34101;53.430;-2.224;2022-10-16T11:07:31;156745.92;;;17.17;56.71
46682;BME280;34101;53.430;-2.224;2022-10-16T11:10:04;156511.68;;;16.23;56.87
46682;BME280;34101;53.430;-2.224;2022-10-16T11:12:38;156620.31;;;16.66;58.22
46682;BME280;34101;53.430;-2.224;2022-10-16T11:15:14;156545.10;;;16.36;58.07
46682;BME280;34101;53.430;-2.224;2022-10-16T11:17:50;156435.68;;;15.92;58.20
46682;BME280;34101;53.430;-2.224;2022-10-16T11:20:22;156365.29;;;15.64;59.40
46682;BME280;34101;53.430;-2.224;2022-10-16T11:22:54;156572.85;;;16.47;58.89
46682;BME280;34101;53.430;-2.224;2022-10-16T11:25:26;156612.36;;;16.63;57.26
46682;BME280;34101;53.430;-2.224;2022-10-16T11:27:58;156680.68;;;16.91;57.14
46682;BME280;34101;53.430;-2.224;2022-10-16T11:30:30;156776.68;;;17.29;55.03
46682;BME280;34101;53.430;-2.224;2022-10-16T11:33:19;156822.79;;;17.48;55.93
46682;BME280;34101;53.430;-2.224;2022-10-16T11:35:55;156954.88;;;18.01;53.47
46682;BME280;34101;53.430;-2.224;2022-10-16T11:38:30;156868.82;;;17.66;52.01
46682;BME280;34101;53.430;-2.224;2022-10-16T11:41:06;156924.10;;;17.88;52.00
46682;BME280;34101;53.430;-2.224;2022-10-16T11:43:37;156918.01;;;17.86;52.94
46682;BME280;34101;53.430;-2.224;2022-10-16T11:46:10;156796.25;;;17.37;55.04
46682;BME280;34101;53.430;-2.224;2022-10-16T11:48:45;156885.38;;;17.73;53.21
46682;BME280;34101;53.430;-2.224;2022-10-16T11:51:26;156905.27;;;17.81;51.19
46682;BME280;34101;53.430;-2.224;2022-10-16T11:54:02;157003.27;;;18.20;51.84
46682;BME280;34101;53.430;-2.224;2022-10-16T11:56:32;157071.49;;;18.47;48.75
46682;BME280;34101;53.430;-2.224;2022-10-16T11:59:08;157102.51;;;18.60;47.44
46682;BME280;34101;53.430;-2.224;2022-10-16T12:01:43;157047.94;;;18.38;48.68
46682;BME280;34101;53.430;-2.224;2022-10-16T12:04:19;156994.18;;;18.16;47.43
46682;BME280;34101;53.430;-2.224;2022-10-16T12:06:57;157047.94;;;18.38;46.21
46682;BME280;34101;53.430;-2.224;2022-10-16T12:09:29;156954.55;;;18.00;47.97
46682;BME280;34101;53.430;-2.224;2022-10-16T12:11:58;156915.17;;;17.85;48.67
46682;BME280;34101;53.430;-2.224;2022-10-16T12:14:40;156900.23;;;17.79;48.18
46682;BME280;34101;53.430;-2.224;2022-10-16T12:17:39;156880.10;;;17.71;47.96
46682;BME280;34101;53.430;-2.224;2022-10-16T12:20:22;156782.45;;;17.31;48.30
46682;BME280;34101;53.430;-2.224;2022-10-16T12:22:56;156666.15;;;16.85;49.03
46682;BME280;34101;53.430;-2.224;2022-10-16T12:25:27;156706.81;;;17.01;49.37
46682;BME280;34101;53.430;-2.224;2022-10-16T12:27:58;156612.11;;;16.63;51.52
46682;BME280;34101;53.430;-2.224;2022-10-16T12:30:27;156551.02;;;16.39;50.08
46682;BME280;34101;53.430;-2.224;2022-10-16T12:32:57;156444.36;;;15.96;51.23
46682;BME280;34101;53.430;-2.224;2022-10-16T12:35:28;156340.07;;;15.54;52.81
46682;BME280;34101;53.430;-2.224;2022-10-16T12:38:08;156391.16;;;15.74;52.52
46682;BME280;34101;53.430;-2.224;2022-10-16T12:40:43;156406.57;;;15.81;51.98
46682;BME280;34101;53.430;-2.224;2022-10-16T12:43:24;156412.00;;;15.83;51.47
46682;BME280;34101;53.430;-2.224;2022-10-16T12:46:20;156256.97;;;15.20;53.09
46682;BME280;34101;53.430;-2.224;2022-10-16T12:48:48;156309.91;;;15.42;53.53
46682;BME280;34101;53.430;-2.224;2022-10-16T12:51:24;156307.80;;;15.41;53.29
46682;BME280;34101;53.430;-2.224;2022-10-16T12:54:00;156357.83;;;15.61;52.66
46682;BME280;34101;53.430;-2.224;2022-10-16T12:56:37;156412.49;;;15.83;52.76